Time;durP1;ratioP1;P1;durP2;ratioP2;P2;SDS_P1;SDS_P2;PMS_P1;PMS_P2;Temp;Humidity;BMP_temperature;BMP_pressure;BME280_temperature;BME280_humidity;BME280_pressure;Samples;Min_cycle;Max_cycle;Signal;HPM_P1;HPM_P2
2023/05/09 00:00:49;;;;;;;0.50;0.50;;;;;;;12.73;100.00;99796.16;5057161;28;20631;-63
2023/05/09 00:03:17;;;;;;;0.67;0.67;;;;;;;12.73;100.00;99796.16;5056435;28;20588;-63
2023/05/09 00:05:45;;;;;;;0.50;0.50;;;;;;;12.76;100.00;99794.31;5056679;28;20282;-63
2023/05/09 00:08:11;;;;;;;0.50;0.50;;;;;;;12.73;100.00;99798.72;5056990;28;20239;-62
2023/05/09 00:10:38;;;;;;;0.53;0.53;;;;;;;12.70;100.00;99802.22;5056069;28;20204;-64
2023/05/09 00:13:05;;;;;;;0.40;0.40;;;;;;;12.68;100.00;99804.00;5056518;28;20200;-63
2023/05/09 00:15:32;;;;;;;0.40;0.40;;;;;;;12.78;100.00;99799.41;5056057;28;20216;-63
2023/05/09 00:17:59;;;;;;;0.53;0.53;;;;;;;12.89;100.00;99810.19;5056776;28;20196;-63
2023/05/09 00:20:27;;;;;;;0.40;0.40;;;;;;;12.82;100.00;99806.13;5056569;28;20201;-63
2023/05/09 00:22:54;;;;;;;0.40;0.40;;;;;;;12.80;100.00;99803.59;5056838;28;20200;-62
2023/05/09 00:25:20;;;;;;;0.80;0.80;;;;;;;12.79;100.00;99795.94;5056541;28;20207;-62
2023/05/09 00:27:47;;;;;;;0.40;0.40;;;;;;;12.83;100.00;99802.66;5055765;28;20749;-64
2023/05/09 00:30:14;;;;;;;0.40;0.40;;;;;;;12.87;100.00;99804.22;5053462;28;20270;-64
2023/05/09 00:32:41;;;;;;;0.60;0.60;;;;;;;12.82;100.00;99801.84;5053023;28;20262;-63
2023/05/09 00:35:08;;;;;;;0.60;0.60;;;;;;;12.85;100.00;99800.88;5052919;28;20300;-62
2023/05/09 00:37:36;;;;;;;0.40;0.40;;;;;;;12.87;100.00;99799.09;5052072;28;20255;-63
2023/05/09 00:40:05;;;;;;;0.50;0.50;;;;;;;12.83;100.00;99811.22;5052892;28;20739;-63
2023/05/09 00:42:32;;;;;;;0.50;0.50;;;;;;;12.84;100.00;99815.47;5053050;28;20251;-64
2023/05/09 00:44:59;;;;;;;0.60;0.60;;;;;;;12.87;100.00;99814.53;5052772;28;20243;-63
2023/05/09 00:47:27;;;;;;;0.50;0.50;;;;;;;12.79;100.00;99806.22;5053114;28;20248;-66
2023/05/09 00:49:55;;;;;;;0.70;0.70;;;;;;;12.86;100.00;99811.09;5052025;28;20618;-63
2023/05/09 00:52:24;;;;;;;0.47;0.47;;;;;;;12.89;100.00;99821.28;5053162;28;20201;-63
2023/05/09 00:54:53;;;;;;;0.43;0.43;;;;;;;12.90;100.00;99814.41;5052621;28;20315;-64
2023/05/09 00:57:20;;;;;;;0.80;0.80;;;;;;;12.86;100.00;99813.69;5052763;28;20201;-63
2023/05/09 00:59:47;;;;;;;0.40;0.40;;;;;;;12.83;100.00;99823.22;5052681;28;20266;-63
2023/05/09 01:02:14;;;;;;;0.53;0.53;;;;;;;12.81;100.00;99825.03;5052837;28;20278;-63
2023/05/09 01:04:41;;;;;;;0.90;0.90;;;;;;;12.76;100.00;99816.63;5052202;28;20224;-63
2023/05/09 01:07:13;;;;;;;0.60;0.60;;;;;;;12.74;100.00;99818.38;5051810;28;20205;-64
2023/05/09 01:09:48;;;;;;;0.40;0.40;;;;;;;12.75;100.00;99820.06;5052240;28;20262;-63
2023/05/09 01:12:26;;;;;;;0.57;0.57;;;;;;;12.78;100.00;99825.13;5047839;28;20617;-63
2023/05/09 01:15:00;;;;;;;0.50;0.50;;;;;;;12.70;100.00;99829.69;5052406;28;20270;-63
2023/05/09 01:17:35;;;;;;;0.60;0.60;;;;;;;12.61;100.00;99817.94;5052551;28;20296;-63
2023/05/09 01:20:09;;;;;;;0.43;0.43;;;;;;;12.66;100.00;99826.38;5052646;28;20196;-63
2023/05/09 01:22:39;;;;;;;0.70;0.70;;;;;;;12.52;100.00;99808.78;5052625;28;20208;-63
2023/05/09 01:25:29;;;;;;;0.57;0.57;;;;;;;12.63;100.00;99827.28;5052543;28;20253;-63
2023/05/09 01:28:09;;;;;;;1.00;1.00;;;;;;;12.69;100.00;99831.41;5052026;28;20750;-64
2023/05/09 01:30:38;;;;;;;0.50;0.50;;;;;;;12.62;100.00;99820.47;5052530;28;20262;-64
2023/05/09 01:33:07;;;;;;;0.50;0.50;;;;;;;12.64;100.00;99821.25;5051766;28;20209;-64
2023/05/09 01:35:39;;;;;;;0.50;0.50;;;;;;;12.67;100.00;99822.03;5052132;28;20221;-63
2023/05/09 01:38:10;;;;;;;0.50;0.50;;;;;;;12.66;100.00;99815.22;5051656;28;20710;-64
2023/05/09 01:40:38;;;;;;;0.67;0.67;;;;;;;12.56;100.00;99815.53;5051645;28;20263;-63
2023/05/09 01:43:08;;;;;;;0.50;0.50;;;;;;;12.64;100.00;99831.53;5051602;28;20205;-64
2023/05/09 01:45:39;;;;;;;0.50;0.50;;;;;;;12.44;100.00;99803.03;5052313;28;20212;-64
2023/05/09 01:48:07;;;;;;;0.70;0.70;;;;;;;12.64;100.00;99822.97;5051927;28;20262;-63
2023/05/09 01:50:35;;;;;;;0.77;0.77;;;;;;;12.61;100.00;99823.94;5052057;28;20634;-64
2023/05/09 01:53:05;;;;;;;0.50;0.50;;;;;;;12.59;100.00;99820.56;5051945;28;20270;-64
2023/05/09 01:55:35;;;;;;;0.53;0.53;;;;;;;12.62;100.00;99823.06;5051811;28;20224;-64
2023/05/09 01:58:04;;;;;;;0.50;0.50;;;;;;;12.53;100.00;99825.06;5051588;28;20243;-64
2023/05/09 02:00:33;;;;;;;0.50;0.50;;;;;;;12.50;100.00;99820.84;5051614;28;20209;-64
2023/05/09 02:03:03;;;;;;;0.80;0.80;;;;;;;12.55;100.00;99818.97;5051131;28;20231;-64
2023/05/09 02:05:32;;;;;;;0.50;0.50;;;;;;;12.60;100.00;99827.38;5051171;28;20275;-64
2023/05/09 02:07:59;;;;;;;0.50;0.50;;;;;;;12.53;100.00;99831.06;5050979;28;20207;-64
2023/05/09 02:10:27;;;;;;;0.60;0.60;;;;;;;12.57;100.00;99832.63;5051304;28;20278;-63
2023/05/09 02:12:54;;;;;;;0.50;0.50;;;;;;;12.56;100.00;99830.97;5051465;28;20266;-63
2023/05/09 02:15:22;;;;;;;0.80;0.80;;;;;;;12.55;100.00;99836.13;5050939;28;20213;-64
2023/05/09 02:17:48;;;;;;;0.40;0.40;;;;;;;12.45;100.00;99838.16;5051585;28;20208;-62
2023/05/09 02:20:17;;;;;;;0.60;0.60;;;;;;;12.41;100.00;99841.69;5051334;28;20196;-63
2023/05/09 02:22:44;;;;;;;0.40;0.40;;;;;;;12.37;100.00;99835.00;5051469;28;20200;-64
2023/05/09 02:25:14;;;;;;;0.50;0.50;;;;;;;12.45;100.00;99835.59;5051383;28;20669;-63
2023/05/09 02:27:42;;;;;;;0.60;0.60;;;;;;;12.44;100.00;99831.31;5045717;28;20739;-63
2023/05/09 02:30:14;;;;;;;0.40;0.40;;;;;;;12.51;100.00;99837.97;5051021;28;20196;-63
2023/05/09 02:32:45;;;;;;;0.70;0.70;;;;;;;12.38;100.00;99844.38;5045803;28;20200;-63
2023/05/09 02:35:14;;;;;;;0.50;0.50;;;;;;;12.36;100.00;99846.16;5050629;28;20586;-63
2023/05/09 02:37:43;;;;;;;0.70;0.70;;;;;;;12.38;100.00;99852.06;5051054;28;20200;-63
2023/05/09 02:40:11;;;;;;;0.50;0.50;;;;;;;12.40;100.00;99854.63;5050988;28;20289;-63
2023/05/09 02:42:38;;;;;;;0.43;0.43;;;;;;;12.48;100.00;99848.34;5050855;28;20254;-64
2023/05/09 02:45:06;;;;;;;0.80;0.80;;;;;;;12.41;100.00;99859.69;5051182;28;20620;-63
2023/05/09 02:47:33;;;;;;;0.43;0.43;;;;;;;12.38;100.00;99852.06;5050858;28;20212;-63
2023/05/09 02:50:00;;;;;;;0.40;0.40;;;;;;;12.37;100.00;99860.69;5051226;28;20279;-63
2023/05/09 02:52:26;;;;;;;0.67;0.67;;;;;;;12.37;100.00;99847.00;5049913;28;20266;-65
2023/05/09 02:54:54;;;;;;;0.80;0.80;;;;;;;12.43;100.00;99860.50;5050980;28;20197;-64
2023/05/09 02:57:21;;;;;;;0.50;0.50;;;;;;;12.45;100.00;99865.59;5050098;28;20596;-63
2023/05/09 02:59:48;;;;;;;0.77;0.77;;;;;;;12.47;100.00;99866.41;5049733;28;20293;-63
2023/05/09 03:02:15;;;;;;;0.57;0.57;;;;;;;12.48;100.00;99868.06;5050827;28;20562;-63
2023/05/09 03:04:42;;;;;;;0.60;0.60;;;;;;;12.47;100.00;99862.09;5050448;28;20609;-64
2023/05/09 03:07:10;;;;;;;0.50;0.50;;;;;;;12.42;100.00;99871.69;5050555;28;20201;-64
2023/05/09 03:09:36;;;;;;;0.60;0.60;;;;;;;12.43;100.00;99869.94;5050669;28;20620;-63
2023/05/09 03:12:05;;;;;;;0.50;0.50;;;;;;;12.41;100.00;99872.56;5050606;28;20266;-64
2023/05/09 03:14:32;;;;;;;0.50;0.50;;;;;;;12.32;100.00;99862.56;5050357;28;20200;-64
2023/05/09 03:16:58;;;;;;;0.50;0.50;;;;;;;12.38;100.00;99875.22;5050661;28;20696;-64
2023/05/09 03:19:26;;;;;;;0.70;0.70;;;;;;;12.42;100.00;99874.25;5050696;28;20262;-63
2023/05/09 03:21:52;;;;;;;0.40;0.40;;;;;;;12.40;100.00;99876.03;5050483;28;20289;-64
2023/05/09 03:24:19;;;;;;;0.90;0.90;;;;;;;12.30;100.00;99874.63;5050602;28;20665;-63
2023/05/09 03:26:46;;;;;;;0.60;0.60;;;;;;;12.30;100.00;99884.06;5049952;28;20210;-64
2023/05/09 03:29:14;;;;;;;0.40;0.40;;;;;;;12.38;100.00;99892.38;5050121;28;20247;-64
2023/05/09 03:31:40;;;;;;;0.40;0.40;;;;;;;12.41;100.00;99898.28;5050297;28;20193;-64
2023/05/09 03:34:11;;;;;;;0.50;0.50;;;;;;;12.42;100.00;99899.13;5050177;28;20255;-64
2023/05/09 03:36:38;;;;;;;0.60;0.60;;;;;;;12.48;100.00;99898.94;5049552;28;20229;-64
2023/05/09 03:39:05;;;;;;;0.60;0.60;;;;;;;12.51;100.00;99899.69;5050357;28;20193;-63
2023/05/09 03:41:31;;;;;;;0.90;0.90;;;;;;;12.53;100.00;99897.06;5050511;28;20262;-64
2023/05/09 03:43:58;;;;;;;0.60;0.60;;;;;;;12.51;100.00;99899.69;5050416;28;20268;-64
2023/05/09 03:46:26;;;;;;;0.50;0.50;;;;;;;12.50;100.00;99900.56;5050265;28;20197;-64
2023/05/09 03:48:53;;;;;;;0.50;0.50;;;;;;;12.51;100.00;99903.97;5049913;28;20204;-64
2023/05/09 03:51:20;;;;;;;0.60;0.60;;;;;;;12.38;100.00;99882.94;5050339;28;20205;-64
2023/05/09 03:53:47;;;;;;;0.50;0.50;;;;;;;12.43;100.00;99896.50;5049990;28;20243;-64
2023/05/09 03:56:14;;;;;;;0.50;0.50;;;;;;;12.60;100.00;99908.88;5049956;28;20282;-64
2023/05/09 03:58:41;;;;;;;0.50;0.50;;;;;;;12.68;100.00;99916.34;5049971;28;20205;-64
2023/05/09 04:01:07;;;;;;;0.60;0.60;;;;;;;12.66;100.00;99918.13;5049546;28;20208;-63
2023/05/09 04:03:36;;;;;;;0.50;0.50;;;;;;;12.64;100.00;99916.44;5050953;28;20258;-64
2023/05/09 04:06:03;;;;;;;0.50;0.50;;;;;;;12.66;100.00;99925.84;5053309;28;20197;-64
2023/05/09 04:08:30;;;;;;;0.80;0.80;;;;;;;12.70;100.00;99920.53;5053642;28;20236;-64
2023/05/09 04:10:57;;;;;;;0.40;0.40;;;;;;;12.75;100.00;99918.69;5053379;28;20742;-64
2023/05/09 04:13:23;;;;;;;0.50;0.50;;;;;;;12.67;100.00;99917.22;5053653;28;20193;-64
2023/05/09 04:15:50;;;;;;;0.40;0.40;;;;;;;12.68;100.00;99921.47;5053645;28;20745;-64
2023/05/09 04:18:17;;;;;;;0.50;0.50;;;;;;;12.59;100.00;99920.03;5053756;28;20243;-64
2023/05/09 04:20:45;;;;;;;0.60;0.60;;;;;;;12.62;100.00;99925.94;5053628;28;20197;-64
2023/05/09 04:23:12;;;;;;;0.60;0.60;;;;;;;12.64;100.00;99921.56;5053431;28;20259;-64
2023/05/09 04:25:39;;;;;;;0.40;0.40;;;;;;;12.68;100.00;99918.91;5053853;28;20754;-64
2023/05/09 04:28:05;;;;;;;0.50;0.50;;;;;;;12.68;100.00;99921.47;5053572;28;20202;-64
2023/05/09 04:30:32;;;;;;;0.60;0.60;;;;;;;12.66;100.00;99923.25;5053415;28;20200;-65
2023/05/09 04:32:59;;;;;;;0.50;0.50;;;;;;;12.62;100.00;99917.38;5052897;28;20200;-64
2023/05/09 04:35:26;;;;;;;0.50;0.50;;;;;;;12.59;100.00;99915.75;5052653;28;20216;-65
2023/05/09 04:37:54;;;;;;;0.60;0.60;;;;;;;12.67;100.00;99920.63;5053119;28;20217;-65
2023/05/09 04:40:21;;;;;;;0.50;0.50;;;;;;;12.80;100.00;99921.94;5052987;28;20204;-64
2023/05/09 04:42:47;;;;;;;0.57;0.57;;;;;;;12.70;100.00;99925.69;5052990;28;20201;-64
2023/05/09 04:45:14;;;;;;;0.40;0.40;;;;;;;12.63;100.00;99922.44;5052752;28;20235;-64
2023/05/09 04:47:41;;;;;;;0.50;0.50;;;;;;;12.62;100.00;99928.50;5052808;28;20189;-63
2023/05/09 04:50:08;;;;;;;0.60;0.60;;;;;;;12.60;100.00;99927.69;5052980;28;20197;-64
2023/05/09 04:52:35;;;;;;;0.60;0.60;;;;;;;12.61;100.00;99931.09;5053221;28;20315;-64
2023/05/09 04:55:03;;;;;;;0.57;0.57;;;;;;;12.60;100.00;99930.25;5052974;28;20251;-65
2023/05/09 04:57:32;;;;;;;0.50;0.50;;;;;;;12.64;100.00;99934.44;5051630;28;20221;-63
2023/05/09 04:59:59;;;;;;;0.50;0.50;;;;;;;12.64;100.00;99937.00;5052325;28;20221;-63
2023/05/09 05:02:26;;;;;;;0.70;0.70;;;;;;;12.67;100.00;99935.22;5048574;28;20255;-64
2023/05/09 05:04:52;;;;;;;0.50;0.50;;;;;;;12.67;100.00;99935.22;5052642;28;20283;-63
2023/05/09 05:07:19;;;;;;;0.60;0.60;;;;;;;12.62;100.00;99938.78;5052698;28;20204;-63
2023/05/09 05:09:46;;;;;;;0.60;0.60;;;;;;;12.61;100.00;99942.25;5052474;28;20247;-64
2023/05/09 05:12:14;;;;;;;0.60;0.60;;;;;;;12.53;100.00;99933.94;5052682;28;20635;-63
2023/05/09 05:14:40;;;;;;;0.80;0.80;;;;;;;12.52;100.00;99942.53;5052297;28;20201;-63
2023/05/09 05:17:07;;;;;;;0.63;0.63;;;;;;;12.53;100.00;99936.50;5049647;28;20278;-63
2023/05/09 05:19:34;;;;;;;0.50;0.50;;;;;;;12.42;100.00;99928.25;5052331;28;20193;-65
2023/05/09 05:22:01;;;;;;;0.43;0.43;;;;;;;12.53;100.00;99939.06;5052440;28;20607;-63
2023/05/09 05:24:28;;;;;;;0.60;0.60;;;;;;;12.51;100.00;99943.41;5052437;28;20291;-64
2023/05/09 05:26:54;;;;;;;0.80;0.80;;;;;;;12.46;100.00;99937.56;5052412;28;20250;-64
2023/05/09 05:29:22;;;;;;;0.50;0.50;;;;;;;12.54;100.00;99942.47;5052068;28;20676;-64
2023/05/09 05:31:49;;;;;;;0.60;0.60;;;;;;;12.51;100.00;99945.13;5052121;28;20200;-65
2023/05/09 05:34:16;;;;;;;0.63;0.63;;;;;;;12.54;100.00;99940.72;5052423;28;20201;-63
2023/05/09 05:36:43;;;;;;;1.03;1.03;;;;;;;12.48;100.00;99946.06;5052286;28;20763;-63
2023/05/09 05:39:10;;;;;;;0.60;0.60;;;;;;;12.47;100.00;99944.38;5052028;28;20266;-64
2023/05/09 05:41:36;;;;;;;0.90;0.90;;;;;;;12.56;100.00;99948.41;5051903;28;20626;-64
2023/05/09 05:44:03;;;;;;;0.67;0.67;;;;;;;12.58;100.00;99952.63;5052217;28;20569;-64
2023/05/09 05:46:31;;;;;;;0.60;0.60;;;;;;;12.60;100.00;99955.97;5051938;28;20192;-64
2023/05/09 05:48:58;;;;;;;0.40;0.40;;;;;;;12.56;100.00;99958.72;5052145;28;20197;-64
2023/05/09 05:51:24;;;;;;;0.60;0.60;;;;;;;12.56;100.00;99959.56;5051897;28;20204;-64
2023/05/09 05:53:51;;;;;;;1.03;1.03;;;;;;;12.55;100.00;99962.16;5051972;28;20762;-64
2023/05/09 05:56:18;;;;;;;0.50;0.50;;;;;;;12.61;100.00;99955.09;5051948;28;20260;-64
2023/05/09 05:58:45;;;;;;;0.40;0.40;;;;;;;12.51;100.00;99939.97;5051249;28;20205;-64
2023/05/09 06:01:12;;;;;;;0.60;0.60;;;;;;;12.68;100.00;99957.50;5051772;28;20250;-64
2023/05/09 06:03:40;;;;;;;0.50;0.50;;;;;;;12.64;100.00;99967.03;5050978;28;20208;-64
2023/05/09 06:06:07;;;;;;;0.50;0.50;;;;;;;12.59;100.00;99959.47;5051784;28;20270;-64
2023/05/09 06:08:34;;;;;;;0.60;0.60;;;;;;;12.55;100.00;99952.72;5051589;28;20342;-64
2023/05/09 06:11:01;;;;;;;0.43;0.43;;;;;;;12.63;100.00;99953.31;5051462;28;20267;-64
2023/05/09 06:13:28;;;;;;;0.60;0.60;;;;;;;12.73;100.00;99955.66;5051572;28;20742;-64
2023/05/09 06:15:55;;;;;;;0.80;0.80;;;;;;;12.60;100.00;99955.16;5050794;28;20246;-64
2023/05/09 06:18:22;;;;;;;0.47;0.47;;;;;;;12.58;100.00;99957.78;5051523;28;20313;-64
2023/05/09 06:20:50;;;;;;;0.60;0.60;;;;;;;12.54;100.00;99948.44;5050175;28;20288;-64
2023/05/09 06:23:20;;;;;;;0.60;0.60;;;;;;;12.57;100.00;99958.66;5051422;28;20628;-63
2023/05/09 06:25:47;;;;;;;0.53;0.53;;;;;;;12.66;100.00;99959.28;5050311;28;20210;-63
2023/05/09 06:28:14;;;;;;;0.57;0.57;;;;;;;12.63;100.00;99950.75;5050492;28;20193;-64
2023/05/09 06:30:41;;;;;;;0.70;0.70;;;;;;;12.65;100.00;99958.44;5050734;28;20595;-63
2023/05/09 06:33:07;;;;;;;0.60;0.60;;;;;;;12.60;100.00;99942.31;5050703;28;20200;-63
2023/05/09 06:35:34;;;;;;;1.10;0.70;;;;;;;12.59;100.00;99949.19;5050900;28;20204;-63
2023/05/09 06:38:02;;;;;;;0.50;0.50;;;;;;;12.54;100.00;99951.03;5050250;28;20217;-63
2023/05/09 06:40:29;;;;;;;0.60;0.60;;;;;;;12.52;100.00;99952.81;5050670;28;20209;-63
2023/05/09 06:42:56;;;;;;;0.53;0.53;;;;;;;12.53;100.00;99954.50;5049132;28;20200;-63
2023/05/09 06:45:22;;;;;;;0.50;0.50;;;;;;;12.55;100.00;99963.00;5050931;28;20676;-63
2023/05/09 06:47:49;;;;;;;0.50;0.50;;;;;;;12.54;100.00;99945.88;5050949;28;20200;-63
2023/05/09 06:50:16;;;;;;;0.80;0.80;;;;;;;12.57;100.00;99950.09;5051131;28;20196;-64
2023/05/09 06:52:42;;;;;;;0.53;0.53;;;;;;;12.58;100.00;99947.47;5050826;28;20201;-64
2023/05/09 06:55:11;;;;;;;0.73;0.73;;;;;;;12.67;100.00;99948.94;5050384;28;20693;-64
2023/05/09 06:57:38;;;;;;;0.57;0.57;;;;;;;12.68;100.00;99962.63;5050333;28;20754;-63
2023/05/09 07:00:06;;;;;;;0.93;0.93;;;;;;;12.64;100.00;99961.88;5050219;28;20681;-63
2023/05/09 07:02:33;;;;;;;0.60;0.60;;;;;;;12.60;100.00;99950.84;5050061;28;20201;-63
2023/05/09 07:05:00;;;;;;;0.40;0.40;;;;;;;12.72;100.00;99974.53;5050155;28;20621;-63
2023/05/09 07:07:26;;;;;;;0.43;0.43;;;;;;;12.76;100.00;99965.84;5050887;28;20550;-63
2023/05/09 07:09:53;;;;;;;0.53;0.53;;;;;;;12.86;100.00;99967.25;5050505;28;20208;-64
2023/05/09 07:12:21;;;;;;;0.40;0.40;;;;;;;12.86;100.00;99968.06;5050107;28;20258;-63
2023/05/09 07:14:48;;;;;;;0.50;0.50;;;;;;;12.84;100.00;99974.16;5050704;28;20258;-63
2023/05/09 07:17:14;;;;;;;0.60;0.60;;;;;;;12.87;100.00;99971.50;5050309;28;20208;-63
2023/05/09 07:19:41;;;;;;;1.00;1.00;;;;;;;12.93;100.00;99973.88;5050607;28;20251;-63
2023/05/09 07:22:08;;;;;;;0.60;0.60;;;;;;;13.03;100.00;99980.41;5050135;28;20200;-63
2023/05/09 07:24:34;;;;;;;0.60;0.60;;;;;;;12.95;100.00;99974.69;5050683;28;20193;-63
2023/05/09 07:27:02;;;;;;;0.50;0.50;;;;;;;12.85;100.00;99962.97;5049875;28;20196;-63
2023/05/09 07:29:30;;;;;;;1.00;1.00;;;;;;;13.01;100.00;99966.78;5050285;28;20639;-63
2023/05/09 07:31:57;;;;;;;0.40;0.40;;;;;;;12.95;100.00;99967.81;5050052;28;20196;-63
2023/05/09 07:34:24;;;;;;;0.60;0.60;;;;;;;12.94;100.00;99970.41;5050327;28;20274;-63
2023/05/09 07:36:51;;;;;;;0.40;0.40;;;;;;;12.96;100.00;99964.31;5049767;28;20204;-63
2023/05/09 07:39:17;;;;;;;0.83;0.83;;;;;;;12.99;100.00;99968.53;5053925;28;20200;-64
2023/05/09 07:41:44;;;;;;;0.70;0.70;;;;;;;13.01;100.00;99966.78;5054112;28;20201;-63
2023/05/09 07:44:11;;;;;;;0.50;0.50;;;;;;;12.96;100.00;99966.06;5054029;28;20200;-63
2023/05/09 07:46:40;;;;;;;0.60;0.60;;;;;;;13.04;100.00;99970.09;5054440;28;20566;-63
2023/05/09 07:49:07;;;;;;;0.63;0.63;;;;;;;13.04;100.00;99971.81;5054288;28;20288;-63
2023/05/09 07:51:34;;;;;;;0.70;0.70;;;;;;;13.03;100.00;99973.53;5054441;28;20205;-63
2023/05/09 07:54:01;;;;;;;0.70;0.70;;;;;;;13.07;100.00;99980.28;5053989;28;20205;-64
2023/05/09 07:56:27;;;;;;;0.53;0.53;;;;;;;13.12;100.00;99978.44;5053819;28;20584;-63
2023/05/09 07:58:54;;;;;;;0.70;0.70;;;;;;;13.13;100.00;99974.13;5053962;28;20217;-63
2023/05/09 08:01:21;;;;;;;0.50;0.50;;;;;;;13.05;100.00;99982.06;5053698;28;20266;-63
2023/05/09 08:03:49;;;;;;;0.50;0.50;;;;;;;13.11;100.00;99987.06;5053928;28;20205;-63
2023/05/09 08:06:16;;;;;;;0.50;0.50;;;;;;;13.13;100.00;99987.84;5053878;28;20203;-63
2023/05/09 08:08:42;;;;;;;0.60;0.60;;;;;;;13.08;100.00;99982.03;5053525;28;20192;-63
2023/05/09 08:11:09;;;;;;;1.00;1.00;;;;;;;13.18;100.00;99985.16;5053690;28;20243;-63
2023/05/09 08:13:36;;;;;;;0.83;0.83;;;;;;;13.14;100.00;99983.56;5053511;28;20211;-63
2023/05/09 08:16:03;;;;;;;0.97;0.97;;;;;;;13.10;100.00;99981.97;5053910;28;20193;-63
2023/05/09 08:18:29;;;;;;;0.50;0.50;;;;;;;13.20;100.00;99982.50;5053755;28;20693;-64
2023/05/09 08:20:58;;;;;;;0.70;0.70;;;;;;;13.17;100.00;99982.59;5053558;28;20375;-63
2023/05/09 08:23:25;;;;;;;0.50;0.50;;;;;;;13.17;100.00;99977.47;5052737;28;20200;-64
2023/05/09 08:25:53;;;;;;;0.50;0.50;;;;;;;13.28;100.00;99978.78;5053343;28;20204;-63
2023/05/09 08:28:22;;;;;;;0.60;0.60;;;;;;;13.20;100.00;99970.47;5052912;28;20701;-64
2023/05/09 08:30:49;;;;;;;1.13;1.13;;;;;;;13.24;100.00;99984.09;5053195;28;20196;-64
2023/05/09 08:33:16;;;;;;;1.60;1.60;;;;;;;13.22;100.00;99980.72;5053553;28;20208;-63
2023/05/09 08:35:43;;;;;;;0.50;0.50;;;;;;;13.22;100.00;99973.00;5053012;28;20259;-63
2023/05/09 08:38:11;;;;;;;0.70;0.70;;;;;;;13.19;100.00;99975.66;5053079;28;20654;-63
2023/05/09 08:40:38;;;;;;;0.80;0.80;;;;;;;13.17;100.00;99977.47;5053042;28;20727;-63
2023/05/09 08:43:06;;;;;;;0.60;0.60;;;;;;;13.22;100.00;99976.41;5053043;28;20205;-64
2023/05/09 08:45:39;;;;;;;2.00;1.90;;;;;;;13.27;100.00;99978.84;5053000;28;20201;-62
2023/05/09 08:48:08;;;;;;;2.80;2.67;;;;;;;13.27;100.00;99978.84;5053171;28;20242;-64
2023/05/09 08:50:35;;;;;;;1.60;1.50;;;;;;;13.22;100.00;99975.56;5051990;28;20581;-63
2023/05/09 08:53:02;;;;;;;0.97;0.97;;;;;;;13.23;100.00;99966.97;5052686;28;20212;-63
2023/05/09 08:55:30;;;;;;;0.70;0.70;;;;;;;13.30;100.00;99966.72;5052698;28;20762;-63
2023/05/09 08:57:57;;;;;;;3.30;1.33;;;;;;;13.26;100.00;99972.84;5052617;28;20217;-63
2023/05/09 09:00:26;;;;;;;0.60;0.60;;;;;;;13.27;100.00;99966.84;5052633;28;20282;-63
2023/05/09 09:02:55;;;;;;;3.30;0.87;;;;;;;13.31;100.00;99965.81;5052789;28;20267;-63
2023/05/09 09:05:23;;;;;;;0.57;0.57;;;;;;;13.33;100.00;99963.22;5052975;28;20225;-63
2023/05/09 09:07:50;;;;;;;0.60;0.60;;;;;;;13.39;100.00;99963.84;5052883;28;20234;-63
2023/05/09 09:10:19;;;;;;;0.40;0.40;;;;;;;13.42;100.00;99945.72;5053031;28;20283;-64
2023/05/09 09:12:48;;;;;;;0.60;0.60;;;;;;;13.60;100.00;99952.81;5052975;28;20576;-63
2023/05/09 09:15:17;;;;;;;0.60;0.60;;;;;;;13.74;100.00;99954.94;5050540;28;20193;-63
2023/05/09 09:17:48;;;;;;;0.77;0.77;;;;;;;13.73;100.00;99949.84;5052697;28;20234;-62
2023/05/09 09:20:18;;;;;;;0.60;0.60;;;;;;;13.67;100.00;99949.16;5052851;28;20258;-63
2023/05/09 09:22:48;;;;;;;0.60;0.60;;;;;;;13.56;100.00;99948.69;5052714;28;20211;-63
2023/05/09 09:25:15;;;;;;;0.43;0.43;;;;;;;13.44;100.00;99931.03;5052842;28;20262;-63
2023/05/09 09:27:41;;;;;;;1.00;1.00;;;;;;;13.53;100.00;99953.94;5052274;28;20212;-64
2023/05/09 09:30:11;;;;;;;0.97;0.97;;;;;;;13.55;100.00;99954.72;5052563;28;20196;-63
2023/05/09 09:32:38;;;;;;;0.57;0.57;;;;;;;13.50;100.00;99960.94;5052371;28;20326;-63
2023/05/09 09:35:06;;;;;;;0.60;0.60;;;;;;;13.38;100.00;99948.44;5052134;28;21147;-63
2023/05/09 09:37:34;;;;;;;0.50;0.50;;;;;;;13.47;100.00;99961.03;5051726;28;20689;-63
2023/05/09 09:40:01;;;;;;;0.53;0.53;;;;;;;13.44;100.00;99961.94;5052050;28;20232;-63
2023/05/09 09:42:39;;;;;;;0.83;0.83;;;;;;;13.48;100.00;99963.53;5052502;28;20642;-63
2023/05/09 09:45:12;;;;;;;0.87;0.80;;;;;;;13.51;100.00;99968.59;5051837;28;20204;-63
2023/05/09 09:47:39;;;;;;;0.80;0.80;;;;;;;13.51;100.00;99978.03;5052167;28;20197;-62
2023/05/09 09:50:14;;;;;;;0.50;0.50;;;;;;;13.55;100.00;99974.50;5051323;28;20201;-63
2023/05/09 09:52:48;;;;;;;0.60;0.60;;;;;;;13.49;100.00;99965.22;5051972;28;20201;-62
2023/05/09 09:55:15;;;;;;;0.50;0.50;;;;;;;13.51;100.00;99963.44;5051947;28;20202;-63
2023/05/09 09:57:44;;;;;;;0.40;0.40;;;;;;;13.50;100.00;99951.47;5051591;28;20212;-63
2023/05/09 10:00:14;;;;;;;1.23;1.23;;;;;;;13.63;100.00;99965.59;5051496;28;20584;-63
2023/05/09 10:02:49;;;;;;;1.20;1.20;;;;;;;13.54;100.00;99960.75;5052251;28;20200;-63
2023/05/09 10:05:20;;;;;;;0.70;0.70;;;;;;;13.47;100.00;99951.53;5048795;28;20226;-63
2023/05/09 10:07:51;;;;;;;0.50;0.50;;;;;;;13.59;100.00;99978.66;5051581;28;20201;-63
2023/05/09 10:10:18;;;;;;;1.13;1.13;;;;;;;13.56;100.00;99965.88;5051726;28;20667;-62
2023/05/09 10:12:45;;;;;;;0.63;0.63;;;;;;;13.55;100.00;99969.34;5051496;28;20212;-63
2023/05/09 10:15:19;;;;;;;0.83;0.83;;;;;;;13.51;100.00;99967.75;5051135;28;20201;-62
2023/05/09 10:17:46;;;;;;;0.53;0.53;;;;;;;13.50;100.00;99966.94;5048131;28;20227;-62
2023/05/09 10:20:13;;;;;;;0.67;0.67;;;;;;;13.33;100.00;99943.44;5051097;28;20648;-63
2023/05/09 10:22:41;;;;;;;0.50;0.50;;;;;;;13.54;100.00;99963.34;5051539;28;20342;-63
2023/05/09 10:25:14;;;;;;;0.87;0.87;;;;;;;13.51;100.00;99971.16;5051133;28;20203;-63
2023/05/09 10:27:44;;;;;;;1.30;0.90;;;;;;;13.56;100.00;99971.03;5050881;28;20665;-62
2023/05/09 10:30:17;;;;;;;0.70;0.70;;;;;;;13.63;100.00;99960.44;5050622;28;20193;-61
2023/05/09 10:32:49;;;;;;;0.70;0.70;;;;;;;13.80;100.00;99964.19;5050787;28;20248;-62
2023/05/09 10:35:17;;;;;;;0.50;0.50;;;;;;;13.94;100.00;99967.13;5051252;28;20195;-63
2023/05/09 10:37:45;;;;;;;1.53;1.53;;;;;;;14.04;100.00;99969.34;5051139;28;20205;-63
2023/05/09 10:40:13;;;;;;;0.50;0.50;;;;;;;14.09;100.00;99971.75;5051131;28;20255;-63
2023/05/09 10:42:41;;;;;;;1.03;1.03;;;;;;;14.24;100.00;99976.38;5050396;28;20204;-63
2023/05/09 10:45:10;;;;;;;1.23;1.23;;;;;;;14.16;100.00;99978.38;5051065;28;20266;-62
2023/05/09 10:47:38;;;;;;;0.60;0.60;;;;;;;14.16;100.00;99974.06;5050484;28;20201;-62
2023/05/09 10:50:07;;;;;;;1.07;1.00;;;;;;;14.19;100.00;99973.97;5050561;28;20254;-63
2023/05/09 10:52:34;;;;;;;0.70;0.70;;;;;;;14.12;100.00;99971.63;5050886;28;20198;-64
2023/05/09 10:55:02;;;;;;;0.70;0.70;;;;;;;14.21;100.00;99981.66;5051084;28;20264;-63
2023/05/09 10:57:30;;;;;;;0.57;0.57;;;;;;;14.05;100.00;99959.88;5050502;28;20213;-62
2023/05/09 10:59:57;;;;;;;0.60;0.60;;;;;;;14.17;100.00;99969.75;5050728;28;20258;-63
2023/05/09 11:02:28;;;;;;;0.60;0.60;;;;;;;14.15;100.00;99971.56;5050322;28;20210;-62
2023/05/09 11:05:17;;;;;;;0.50;0.50;;;;;;;14.10;100.00;99968.28;5050285;28;20221;-63
2023/05/09 11:07:44;;;;;;;0.80;0.80;;;;;;;14.07;100.00;99961.50;5050284;28;20281;-62
2023/05/09 11:10:16;;;;;;;0.60;0.60;;;;;;;14.11;100.00;99963.09;5050609;28;20672;-62
2023/05/09 11:12:56;;;;;;;3.80;1.30;;;;;;;14.25;100.00;99964.34;5049114;28;20280;-63
2023/05/09 11:15:23;;;;;;;0.60;0.60;;;;;;;14.41;100.00;99968.88;5050637;28;20206;-62
2023/05/09 11:18:05;;;;;;;0.93;0.93;;;;;;;14.51;100.00;99964.22;5049841;28;20197;-63
2023/05/09 11:20:35;;;;;;;0.50;0.50;;;;;;;14.66;100.00;99959.38;5050442;28;20621;-63
2023/05/09 11:23:05;;;;;;;0.47;0.47;;;;;;;14.73;100.00;99959.13;5045449;28;20260;-63
2023/05/09 11:25:32;;;;;;;0.60;0.60;;;;;;;14.80;100.00;99952.84;5050523;28;20207;-62
2023/05/09 11:28:01;;;;;;;1.07;1.07;;;;;;;14.96;100.00;99956.50;5049733;28;20272;-63